sensor_id;sensor_type;location;lat;lon;timestamp;pressure;altitude;pressure_sealevel;temperature
13304;BMP280;6720;51.958;4.540;2023-06-22T00:01:50;101861.50;;;21.81
13304;BMP280;6720;51.958;4.540;2023-06-22T00:04:15;101863.41;;;21.79
13304;BMP280;6720;51.958;4.540;2023-06-22T00:06:41;101858.06;;;21.79
13304;BMP280;6720;51.958;4.540;2023-06-22T00:09:06;101861.50;;;21.81
13304;BMP280;6720;51.958;4.540;2023-06-22T00:11:35;101857.19;;;21.78
13304;BMP280;6720;51.958;4.540;2023-06-22T00:14:01;101867.94;;;21.77
13304;BMP280;6720;51.958;4.540;2023-06-22T00:16:26;101858.41;;;21.71
13304;BMP280;6720;51.958;4.540;2023-06-22T00:18:52;101854.06;;;21.69
13304;BMP280;6720;51.958;4.540;2023-06-22T00:21:17;101858.63;;;21.67
13304;BMP280;6720;51.958;4.540;2023-06-22T00:23:45;101855.06;;;21.66
13304;BMP280;6720;51.958;4.540;2023-06-22T00:26:11;101850.91;;;21.61
13304;BMP280;6720;51.958;4.540;2023-06-22T00:28:36;101852.47;;;21.65
13304;BMP280;6720;51.958;4.540;2023-06-22T00:31:02;101845.56;;;21.61
13304;BMP280;6720;51.958;4.540;2023-06-22T00:33:27;101848.16;;;21.62
13304;BMP280;6720;51.958;4.540;2023-06-22T00:35:53;101840.38;;;21.58
13304;BMP280;6720;51.958;4.540;2023-06-22T00:38:19;101839.78;;;21.51
13304;BMP280;6720;51.958;4.540;2023-06-22T00:40:45;101843.41;;;21.50
13304;BMP280;6720;51.958;4.540;2023-06-22T00:43:10;101835.59;;;21.45
13304;BMP280;6720;51.958;4.540;2023-06-22T00:45:36;101828.97;;;21.35
13304;BMP280;6720;51.958;4.540;2023-06-22T00:48:02;101834.72;;;21.26
13304;BMP280;6720;51.958;4.540;2023-06-22T00:50:32;101841.25;;;21.39
13304;BMP280;6720;51.958;4.540;2023-06-22T00:53:04;101833.16;;;21.41
13304;BMP280;6720;51.958;4.540;2023-06-22T00:55:36;101831.41;;;21.40
13304;BMP280;6720;51.958;4.540;2023-06-22T00:58:04;101833.25;;;21.39
13304;BMP280;6720;51.958;4.540;2023-06-22T01:00:33;101825.38;;;21.36
13304;BMP280;6720;51.958;4.540;2023-06-22T01:02:58;101827.44;;;21.30
13304;BMP280;6720;51.958;4.540;2023-06-22T01:05:24;101826.72;;;21.26
13304;BMP280;6720;51.958;4.540;2023-06-22T01:08:31;101826.72;;;21.26
13304;BMP280;6720;51.958;4.540;2023-06-22T01:11:08;101822.22;;;21.28
13304;BMP280;6720;51.958;4.540;2023-06-22T01:16:18;101826.22;;;21.37
13304;BMP280;6720;51.958;4.540;2023-06-22T01:18:47;101825.31;;;21.38
13304;BMP280;6720;51.958;4.540;2023-06-22T01:21:16;101821.06;;;21.34
13304;BMP280;6720;51.958;4.540;2023-06-22T01:24:07;101821.06;;;21.34
13304;BMP280;6720;51.958;4.540;2023-06-22T01:29:58;101829.25;;;21.29
13304;BMP280;6720;51.958;4.540;2023-06-22T01:32:28;101821.06;;;21.34
13304;BMP280;6720;51.958;4.540;2023-06-22T01:34:56;101811.94;;;21.39
13304;BMP280;6720;51.958;4.540;2023-06-22T01:37:23;101822.59;;;21.39
13304;BMP280;6720;51.958;4.540;2023-06-22T01:39:49;101830.56;;;21.39
13304;BMP280;6720;51.958;4.540;2023-06-22T01:42:15;101830.56;;;21.39
13304;BMP280;6720;51.958;4.540;2023-06-22T01:44:41;101827.09;;;21.37
13304;BMP280;6720;51.958;4.540;2023-06-22T01:47:07;101825.38;;;21.36
13304;BMP280;6720;51.958;4.540;2023-06-22T01:49:32;101820.19;;;21.33
13304;BMP280;6720;51.958;4.540;2023-06-22T01:51:58;101821.78;;;21.37
13304;BMP280;6720;51.958;4.540;2023-06-22T01:54:24;101821.78;;;21.37
13304;BMP280;6720;51.958;4.540;2023-06-22T01:56:49;101819.44;;;21.30
13304;BMP280;6720;51.958;4.540;2023-06-22T02:02:01;101817.78;;;21.27
13304;BMP280;6720;51.958;4.540;2023-06-22T02:04:41;101821.19;;;21.31
13304;BMP280;6720;51.958;4.540;2023-06-22T02:07:13;101818.59;;;21.29
13304;BMP280;6720;51.958;4.540;2023-06-22T02:09:43;101821.84;;;21.36
13304;BMP280;6720;51.958;4.540;2023-06-22T02:12:11;101820.31;;;21.30
13304;BMP280;6720;51.958;4.540;2023-06-22T02:14:38;101808.22;;;21.23
13304;BMP280;6720;51.958;4.540;2023-06-22T02:17:04;101802.88;;;21.23
13304;BMP280;6720;51.958;4.540;2023-06-22T02:19:37;101808.28;;;21.22
13304;BMP280;6720;51.958;4.540;2023-06-22T02:22:04;101810.09;;;21.21
13304;BMP280;6720;51.958;4.540;2023-06-22T02:24:30;101807.06;;;21.10
13304;BMP280;6720;51.958;4.540;2023-06-22T02:26:59;101807.44;;;21.01
13304;BMP280;6720;51.958;4.540;2023-06-22T02:29:25;101802.22;;;21.00
13304;BMP280;6720;51.958;4.540;2023-06-22T02:31:52;101796.47;;;21.09
13304;BMP280;6720;51.958;4.540;2023-06-22T02:34:17;101802.41;;;20.95
13304;BMP280;6720;51.958;4.540;2023-06-22T02:36:48;101794.13;;;21.01
13304;BMP280;6720;51.958;4.540;2023-06-22T02:39:19;101806.09;;;20.91
13304;BMP280;6720;51.958;4.540;2023-06-22T02:41:45;101796.22;;;20.95
13304;BMP280;6720;51.958;4.540;2023-06-22T02:44:11;101793.13;;;20.84
13304;BMP280;6720;51.958;4.540;2023-06-22T02:46:36;101800.44;;;20.79
13304;BMP280;6720;51.958;4.540;2023-06-22T02:49:02;101799.38;;;20.83
13304;BMP280;6720;51.958;4.540;2023-06-22T02:51:27;101799.56;;;20.78
13304;BMP280;6720;51.958;4.540;2023-06-22T02:53:53;101806.34;;;20.85
13304;BMP280;6720;51.958;4.540;2023-06-22T02:56:22;101801.66;;;20.92
13304;BMP280;6720;51.958;4.540;2023-06-22T02:58:50;101804.66;;;20.84
13304;BMP280;6720;51.958;4.540;2023-06-22T03:01:16;101807.44;;;20.81
13304;BMP280;6720;51.958;4.540;2023-06-22T03:03:41;101817.13;;;20.82
13304;BMP280;6720;51.958;4.540;2023-06-22T03:06:07;101824.16;;;20.85
13304;BMP280;6720;51.958;4.540;2023-06-22T03:08:32;101818.66;;;20.88
13304;BMP280;6720;51.958;4.540;2023-06-22T03:10:58;101823.22;;;20.86
13304;BMP280;6720;51.958;4.540;2023-06-22T03:13:23;101810.91;;;20.83
13304;BMP280;6720;51.958;4.540;2023-06-22T03:15:49;101801.31;;;20.79
13304;BMP280;6720;51.958;4.540;2023-06-22T03:18:14;101793.72;;;20.70
13304;BMP280;6720;51.958;4.540;2023-06-22T03:20:41;101789.28;;;20.71
13304;BMP280;6720;51.958;4.540;2023-06-22T03:23:06;101787.63;;;20.68
13304;BMP280;6720;51.958;4.540;2023-06-22T03:25:32;101789.47;;;20.66
13304;BMP280;6720;51.958;4.540;2023-06-22T03:27:58;101795.59;;;20.68
13304;BMP280;6720;51.958;4.540;2023-06-22T03:30:24;101783.44;;;20.63
13304;BMP280;6720;51.958;4.540;2023-06-22T03:32:49;101783.25;;;20.66
13304;BMP280;6720;51.958;4.540;2023-06-22T03:35:15;101786.28;;;20.58
13304;BMP280;6720;51.958;4.540;2023-06-22T03:37:40;101780.28;;;20.73
13304;BMP280;6720;51.958;4.540;2023-06-22T03:40:06;101774.44;;;20.65
13304;BMP280;6720;51.958;4.540;2023-06-22T03:42:35;101772.56;;;20.67
13304;BMP280;6720;51.958;4.540;2023-06-22T03:45:01;101768.75;;;20.73
13304;BMP280;6720;51.958;4.540;2023-06-22T03:47:27;101774.84;;;20.76
13304;BMP280;6720;51.958;4.540;2023-06-22T03:49:52;101761.66;;;20.73
13304;BMP280;6720;51.958;4.540;2023-06-22T03:52:21;101759.13;;;20.70
13304;BMP280;6720;51.958;4.540;2023-06-22T03:54:47;101766.97;;;20.73
13304;BMP280;6720;51.958;4.540;2023-06-22T03:57:12;101767.63;;;20.78
13304;BMP280;6720;51.958;4.540;2023-06-22T03:59:38;101764.44;;;20.70
13304;BMP280;6720;51.958;4.540;2023-06-22T04:02:03;101764.44;;;20.70
13304;BMP280;6720;51.958;4.540;2023-06-22T04:04:29;101760.84;;;20.71
13304;BMP280;6720;51.958;4.540;2023-06-22T04:06:54;101759.81;;;20.75
13304;BMP280;6720;51.958;4.540;2023-06-22T04:09:20;101760.31;;;20.83
13304;BMP280;6720;51.958;4.540;2023-06-22T04:11:47;101761.22;;;20.82
13304;BMP280;6720;51.958;4.540;2023-06-22T04:14:12;101767.38;;;20.84
13304;BMP280;6720;51.958;4.540;2023-06-22T04:16:38;101761.91;;;20.87
13304;BMP280;6720;51.958;4.540;2023-06-22T04:19:03;101763.50;;;20.91
13304;BMP280;6720;51.958;4.540;2023-06-22T04:21:28;101755.59;;;20.90
13304;BMP280;6720;51.958;4.540;2023-06-22T04:23:54;101757.97;;;21.16
13304;BMP280;6720;51.958;4.540;2023-06-22T04:26:20;101760.41;;;21.20
13304;BMP280;6720;51.958;4.540;2023-06-22T04:28:46;101765.72;;;21.20
13304;BMP280;6720;51.958;4.540;2023-06-22T04:31:17;101774.66;;;21.19
13304;BMP280;6720;51.958;4.540;2023-06-22T04:33:43;101770.91;;;21.23
13304;BMP280;6720;51.958;4.540;2023-06-22T04:36:09;101772.38;;;21.30
13304;BMP280;6720;51.958;4.540;2023-06-22T04:38:38;101779.28;;;21.34
13304;BMP280;6720;51.958;4.540;2023-06-22T04:41:04;101777.41;;;21.36
13304;BMP280;6720;51.958;4.540;2023-06-22T04:43:29;101778.13;;;21.40
13304;BMP280;6720;51.958;4.540;2023-06-22T04:45:58;101776.97;;;21.45
13304;BMP280;6720;51.958;4.540;2023-06-22T04:48:29;101774.81;;;21.53
13304;BMP280;6720;51.958;4.540;2023-06-22T04:50:58;101779.88;;;21.60
13304;BMP280;6720;51.958;4.540;2023-06-22T04:53:28;101774.97;;;21.69
13304;BMP280;6720;51.958;4.540;2023-06-22T04:55:55;101777.47;;;21.74
13304;BMP280;6720;51.958;4.540;2023-06-22T04:58:20;101772.22;;;21.71
13304;BMP280;6720;51.958;4.540;2023-06-22T05:00:47;101771.94;;;21.77
13304;BMP280;6720;51.958;4.540;2023-06-22T05:03:12;101777.56;;;21.71
13304;BMP280;6720;51.958;4.540;2023-06-22T05:05:38;101777.13;;;21.80
13304;BMP280;6720;51.958;4.540;2023-06-22T05:08:03;101782.88;;;21.71
13304;BMP280;6720;51.958;4.540;2023-06-22T05:10:32;101779.56;;;21.66
13304;BMP280;6720;51.958;4.540;2023-06-22T05:12:58;101773.03;;;21.73
13304;BMP280;6720;51.958;4.540;2023-06-22T05:15:23;101766.91;;;21.71
13304;BMP280;6720;51.958;4.540;2023-06-22T05:17:53;101773.84;;;21.75
13304;BMP280;6720;51.958;4.540;2023-06-22T05:20:18;101773.53;;;21.81
13304;BMP280;6720;51.958;4.540;2023-06-22T05:22:44;101767.09;;;21.85
13304;BMP280;6720;51.958;4.540;2023-06-22T05:25:10;101761.97;;;21.99
13304;BMP280;6720;51.958;4.540;2023-06-22T05:27:37;101764.72;;;21.97
13304;BMP280;6720;51.958;4.540;2023-06-22T05:30:07;101778.38;;;22.08
13304;BMP280;6720;51.958;4.540;2023-06-22T05:32:33;101777.69;;;22.05
13304;BMP280;6720;51.958;4.540;2023-06-22T05:34:59;101778.50;;;22.24
13304;BMP280;6720;51.958;4.540;2023-06-22T05:37:24;101767.66;;;22.27
13304;BMP280;6720;51.958;4.540;2023-06-22T05:39:49;101765.63;;;22.32
13304;BMP280;6720;51.958;4.540;2023-06-22T05:42:15;101759.34;;;22.33
13304;BMP280;6720;51.958;4.540;2023-06-22T05:44:40;101767.19;;;22.36
13304;BMP280;6720;51.958;4.540;2023-06-22T05:47:06;101763.78;;;22.51
13304;BMP280;6720;51.958;4.540;2023-06-22T05:49:31;101767.88;;;22.58
13304;BMP280;6720;51.958;4.540;2023-06-22T05:51:58;101763.94;;;22.65
13304;BMP280;6720;51.958;4.540;2023-06-22T05:54:25;101764.94;;;22.79
13304;BMP280;6720;51.958;4.540;2023-06-22T05:56:50;101765.16;;;22.75
13304;BMP280;6720;51.958;4.540;2023-06-22T05:59:16;101762.94;;;22.83
13304;BMP280;6720;51.958;4.540;2023-06-22T06:01:41;101765.38;;;22.87
13304;BMP280;6720;51.958;4.540;2023-06-22T06:04:07;101771.09;;;22.97
13304;BMP280;6720;51.958;4.540;2023-06-22T06:06:35;101763.25;;;22.94
13304;BMP280;6720;51.958;4.540;2023-06-22T06:09:05;101763.53;;;23.05
13304;BMP280;6720;51.958;4.540;2023-06-22T06:11:30;101763.38;;;23.08
13304;BMP280;6720;51.958;4.540;2023-06-22T06:13:56;101762.19;;;23.13
13304;BMP280;6720;51.958;4.540;2023-06-22T06:16:22;101762.66;;;23.21
13304;BMP280;6720;51.958;4.540;2023-06-22T06:18:48;101762.56;;;23.23
13304;BMP280;6720;51.958;4.540;2023-06-22T06:21:16;101771.19;;;23.28
13304;BMP280;6720;51.958;4.540;2023-06-22T06:23:42;101761.22;;;23.31
13304;BMP280;6720;51.958;4.540;2023-06-22T06:26:08;101767.59;;;23.44
13304;BMP280;6720;51.958;4.540;2023-06-22T06:28:34;101761.06;;;23.50
13304;BMP280;6720;51.958;4.540;2023-06-22T06:31:00;101751.75;;;23.57
13304;BMP280;6720;51.958;4.540;2023-06-22T06:33:25;101754.94;;;23.63
13304;BMP280;6720;51.958;4.540;2023-06-22T06:35:51;101751.75;;;23.72
13304;BMP280;6720;51.958;4.540;2023-06-22T06:38:16;101745.34;;;23.75
13304;BMP280;6720;51.958;4.540;2023-06-22T06:40:42;101747.31;;;23.87
13304;BMP280;6720;51.958;4.540;2023-06-22T06:43:12;101752.50;;;23.90
13304;BMP280;6720;51.958;4.540;2023-06-22T06:45:40;101741.66;;;23.93
13304;BMP280;6720;51.958;4.540;2023-06-22T06:48:06;101749.53;;;23.96
13304;BMP280;6720;51.958;4.540;2023-06-22T06:50:31;101743.47;;;23.92
13304;BMP280;6720;51.958;4.540;2023-06-22T06:53:15;101743.25;;;24.11
13304;BMP280;6720;51.958;4.540;2023-06-22T06:55:49;101745.75;;;24.14
13304;BMP280;6720;51.958;4.540;2023-06-22T06:58:14;101742.72;;;24.20
13304;BMP280;6720;51.958;4.540;2023-06-22T07:00:58;101734.22;;;24.27
13304;BMP280;6720;51.958;4.540;2023-06-22T07:03:36;101725.44;;;24.25
13304;BMP280;6720;51.958;4.540;2023-06-22T07:06:01;101728.25;;;24.38
13304;BMP280;6720;51.958;4.540;2023-06-22T07:08:26;101736.28;;;24.38
13304;BMP280;6720;51.958;4.540;2023-06-22T07:10:52;101738.00;;;24.39
13304;BMP280;6720;51.958;4.540;2023-06-22T07:13:18;101728.03;;;24.27
13304;BMP280;6720;51.958;4.540;2023-06-22T07:15:43;101723.34;;;24.60
13304;BMP280;6720;51.958;4.540;2023-06-22T07:18:08;101718.75;;;24.62
13304;BMP280;6720;51.958;4.540;2023-06-22T07:20:34;101716.81;;;24.50
13304;BMP280;6720;51.958;4.540;2023-06-22T07:23:00;101718.97;;;24.73
13304;BMP280;6720;51.958;4.540;2023-06-22T07:25:25;101709.41;;;24.83
13304;BMP280;6720;51.958;4.540;2023-06-22T07:30:24;101713.44;;;24.76
13304;BMP280;6720;51.958;4.540;2023-06-22T07:32:50;101714.47;;;24.88
13304;BMP280;6720;51.958;4.540;2023-06-22T07:35:15;101711.31;;;24.95
13304;BMP280;6720;51.958;4.540;2023-06-22T07:37:42;101714.19;;;24.92
13304;BMP280;6720;51.958;4.540;2023-06-22T07:40:08;101703.66;;;25.17
13304;BMP280;6720;51.958;4.540;2023-06-22T07:42:33;101703.56;;;25.33
13304;BMP280;6720;51.958;4.540;2023-06-22T07:44:59;101688.16;;;25.36
13304;BMP280;6720;51.958;4.540;2023-06-22T07:47:24;101693.69;;;25.47
13304;BMP280;6720;51.958;4.540;2023-06-22T07:49:53;101696.25;;;25.49
13304;BMP280;6720;51.958;4.540;2023-06-22T07:52:20;101695.59;;;25.45
13304;BMP280;6720;51.958;4.540;2023-06-22T07:54:46;101706.91;;;25.22
13304;BMP280;6720;51.958;4.540;2023-06-22T07:57:12;101697.72;;;25.40
13304;BMP280;6720;51.958;4.540;2023-06-22T07:59:37;101692.50;;;25.51
13304;BMP280;6720;51.958;4.540;2023-06-22T08:02:04;101686.69;;;25.71
13304;BMP280;6720;51.958;4.540;2023-06-22T08:04:30;101684.25;;;25.81
13304;BMP280;6720;51.958;4.540;2023-06-22T08:06:57;101672.44;;;25.83
13304;BMP280;6720;51.958;4.540;2023-06-22T08:09:22;101680.63;;;25.94
13304;BMP280;6720;51.958;4.540;2023-06-22T08:11:48;101678.56;;;26.12
13304;BMP280;6720;51.958;4.540;2023-06-22T08:14:14;101670.50;;;26.12
13304;BMP280;6720;51.958;4.540;2023-06-22T08:16:41;101670.34;;;26.27
13304;BMP280;6720;51.958;4.540;2023-06-22T08:19:06;101670.44;;;26.38
13304;BMP280;6720;51.958;4.540;2023-06-22T08:21:32;101671.63;;;26.34
13304;BMP280;6720;51.958;4.540;2023-06-22T08:23:57;101679.22;;;26.15
13304;BMP280;6720;51.958;4.540;2023-06-22T08:26:23;101676.56;;;26.40
13304;BMP280;6720;51.958;4.540;2023-06-22T08:28:48;101675.38;;;26.44
13304;BMP280;6720;51.958;4.540;2023-06-22T08:31:14;101677.31;;;26.42
13304;BMP280;6720;51.958;4.540;2023-06-22T08:33:40;101666.91;;;26.50
13304;BMP280;6720;51.958;4.540;2023-06-22T08:36:06;101669.81;;;26.47
13304;BMP280;6720;51.958;4.540;2023-06-22T08:38:33;101664.75;;;26.55
13304;BMP280;6720;51.958;4.540;2023-06-22T08:40:58;101661.88;;;26.83
13304;BMP280;6720;51.958;4.540;2023-06-22T08:43:29;101662.97;;;26.68
13304;BMP280;6720;51.958;4.540;2023-06-22T08:45:55;101659.59;;;27.02
13304;BMP280;6720;51.958;4.540;2023-06-22T08:48:21;101656.94;;;26.77
13304;BMP280;6720;51.958;4.540;2023-06-22T08:50:46;101666.25;;;27.09
13304;BMP280;6720;51.958;4.540;2023-06-22T08:53:11;101663.09;;;27.28
13304;BMP280;6720;51.958;4.540;2023-06-22T08:55:37;101659.13;;;27.08
13304;BMP280;6720;51.958;4.540;2023-06-22T08:58:02;101656.50;;;27.19
13304;BMP280;6720;51.958;4.540;2023-06-22T09:00:29;101656.19;;;27.36
13304;BMP280;6720;51.958;4.540;2023-06-22T09:02:58;101654.28;;;27.49
13304;BMP280;6720;51.958;4.540;2023-06-22T09:05:24;101647.47;;;27.56
13304;BMP280;6720;51.958;4.540;2023-06-22T09:07:51;101644.47;;;27.85
13304;BMP280;6720;51.958;4.540;2023-06-22T09:10:17;101646.72;;;28.02
13304;BMP280;6720;51.958;4.540;2023-06-22T09:12:43;101653.59;;;28.06
13304;BMP280;6720;51.958;4.540;2023-06-22T09:15:09;101642.63;;;28.20
13304;BMP280;6720;51.958;4.540;2023-06-22T09:17:35;101647.44;;;27.93
13304;BMP280;6720;51.958;4.540;2023-06-22T09:20:02;101647.50;;;28.15
13304;BMP280;6720;51.958;4.540;2023-06-22T09:22:31;101641.31;;;28.36
13304;BMP280;6720;51.958;4.540;2023-06-22T09:24:56;101646.56;;;28.27
13304;BMP280;6720;51.958;4.540;2023-06-22T09:27:22;101638.22;;;28.41
13304;BMP280;6720;51.958;4.540;2023-06-22T09:29:48;101637.81;;;28.47
13304;BMP280;6720;51.958;4.540;2023-06-22T09:32:13;101640.94;;;28.30
13304;BMP280;6720;51.958;4.540;2023-06-22T09:34:39;101637.41;;;28.40
13304;BMP280;6720;51.958;4.540;2023-06-22T09:37:04;101640.25;;;28.04
13304;BMP280;6720;51.958;4.540;2023-06-22T09:39:30;101637.06;;;28.45
13304;BMP280;6720;51.958;4.540;2023-06-22T09:42:00;101624.56;;;28.55
13304;BMP280;6720;51.958;4.540;2023-06-22T09:44:26;101627.63;;;28.72
13304;BMP280;6720;51.958;4.540;2023-06-22T09:46:51;101626.72;;;28.28
13304;BMP280;6720;51.958;4.540;2023-06-22T09:49:17;101622.88;;;28.54
13304;BMP280;6720;51.958;4.540;2023-06-22T09:51:42;101621.41;;;28.61
13304;BMP280;6720;51.958;4.540;2023-06-22T09:54:08;101623.84;;;28.75
13304;BMP280;6720;51.958;4.540;2023-06-22T09:56:34;101618.44;;;28.86
13304;BMP280;6720;51.958;4.540;2023-06-22T09:58:59;101617.47;;;28.98
13304;BMP280;6720;51.958;4.540;2023-06-22T10:01:24;101621.78;;;28.78
13304;BMP280;6720;51.958;4.540;2023-06-22T10:03:53;101625.81;;;28.84
13304;BMP280;6720;51.958;4.540;2023-06-22T10:06:21;101627.03;;;28.47
13304;BMP280;6720;51.958;4.540;2023-06-22T10:08:47;101635.38;;;28.77
13304;BMP280;6720;51.958;4.540;2023-06-22T10:11:13;101620.41;;;28.84
13304;BMP280;6720;51.958;4.540;2023-06-22T10:13:39;101627.03;;;28.69
13304;BMP280;6720;51.958;4.540;2023-06-22T10:16:04;101628.25;;;28.76
13304;BMP280;6720;51.958;4.540;2023-06-22T10:18:30;101624.09;;;28.94
13304;BMP280;6720;51.958;4.540;2023-06-22T10:20:56;101629.97;;;28.77
13304;BMP280;6720;51.958;4.540;2023-06-22T10:23:22;101623.59;;;28.89
13304;BMP280;6720;51.958;4.540;2023-06-22T10:25:48;101624.59;;;28.66
13304;BMP280;6720;51.958;4.540;2023-06-22T10:28:14;101629.50;;;28.61
13304;BMP280;6720;51.958;4.540;2023-06-22T10:30:40;101632.84;;;28.41
13304;BMP280;6720;51.958;4.540;2023-06-22T10:33:09;101623.88;;;28.64
13304;BMP280;6720;51.958;4.540;2023-06-22T10:35:36;101629.50;;;28.61
13304;BMP280;6720;51.958;4.540;2023-06-22T10:38:03;101625.06;;;28.82
13304;BMP280;6720;51.958;4.540;2023-06-22T10:40:28;101628.25;;;28.76
13304;BMP280;6720;51.958;4.540;2023-06-22T10:42:54;101629.22;;;28.75
13304;BMP280;6720;51.958;4.540;2023-06-22T10:45:19;101625.31;;;28.57
13304;BMP280;6720;51.958;4.540;2023-06-22T10:47:45;101634.13;;;28.70
13304;BMP280;6720;51.958;4.540;2023-06-22T10:50:11;101627.28;;;28.66
13304;BMP280;6720;51.958;4.540;2023-06-22T10:52:37;101639.28;;;28.73
13304;BMP280;6720;51.958;4.540;2023-06-22T10:55:02;101638.69;;;28.69
13304;BMP280;6720;51.958;4.540;2023-06-22T10:57:28;101631.69;;;28.78
13304;BMP280;6720;51.958;4.540;2023-06-22T10:59:53;101639.28;;;28.84
13304;BMP280;6720;51.958;4.540;2023-06-22T11:02:19;101630.69;;;28.90
13304;BMP280;6720;51.958;4.540;2023-06-22T11:04:45;101636.34;;;28.87
13304;BMP280;6720;51.958;4.540;2023-06-22T11:07:13;101636.34;;;28.65
13304;BMP280;6720;51.958;4.540;2023-06-22T11:09:38;101641.00;;;28.74
13304;BMP280;6720;51.958;4.540;2023-06-22T11:12:05;101632.91;;;28.74
13304;BMP280;6720;51.958;4.540;2023-06-22T11:14:31;101632.06;;;28.84
13304;BMP280;6720;51.958;4.540;2023-06-22T11:16:58;101637.81;;;28.69
13304;BMP280;6720;51.958;4.540;2023-06-22T11:19:24;101630.97;;;28.87
13304;BMP280;6720;51.958;4.540;2023-06-22T11:21:49;101633.78;;;28.85
13304;BMP280;6720;51.958;4.540;2023-06-22T11:24:16;101629.50;;;28.83
13304;BMP280;6720;51.958;4.540;2023-06-22T11:26:41;101621.00;;;28.98
13304;BMP280;6720;51.958;4.540;2023-06-22T11:29:07;101625.69;;;28.96
13304;BMP280;6720;51.958;4.540;2023-06-22T11:31:34;101610.34;;;28.97
13304;BMP280;6720;51.958;4.540;2023-06-22T11:34:00;101614.28;;;29.04
13304;BMP280;6720;51.958;4.540;2023-06-22T11:36:25;101613.03;;;28.97
13304;BMP280;6720;51.958;4.540;2023-06-22T11:38:51;101609.28;;;28.55
13304;BMP280;6720;51.958;4.540;2023-06-22T11:41:16;101603.00;;;28.55
13304;BMP280;6720;51.958;4.540;2023-06-22T11:43:42;101601.53;;;28.51
13304;BMP280;6720;51.958;4.540;2023-06-22T11:46:07;101585.88;;;28.45
13304;BMP280;6720;51.958;4.540;2023-06-22T11:48:33;101584.78;;;28.47
13304;BMP280;6720;51.958;4.540;2023-06-22T11:50:58;101579.22;;;28.38
13304;BMP280;6720;51.958;4.540;2023-06-22T11:53:25;101578.50;;;28.47
13304;BMP280;6720;51.958;4.540;2023-06-22T11:55:52;101581.22;;;28.58
13304;BMP280;6720;51.958;4.540;2023-06-22T11:58:19;101570.41;;;28.36
13304;BMP280;6720;51.958;4.540;2023-06-22T12:00:44;101566.22;;;28.32
13304;BMP280;6720;51.958;4.540;2023-06-22T12:03:10;101563.47;;;28.44
13304;BMP280;6720;51.958;4.540;2023-06-22T12:05:37;101558.19;;;28.54
13304;BMP280;6720;51.958;4.540;2023-06-22T12:08:03;101559.41;;;28.50
13304;BMP280;6720;51.958;4.540;2023-06-22T12:10:28;101561.00;;;28.52
13304;BMP280;6720;51.958;4.540;2023-06-22T12:12:54;101557.72;;;28.49
13304;BMP280;6720;51.958;4.540;2023-06-22T12:15:19;101556.06;;;28.35
13304;BMP280;6720;51.958;4.540;2023-06-22T12:17:45;101554.75;;;28.30
13304;BMP280;6720;51.958;4.540;2023-06-22T12:20:11;101547.13;;;28.35
13304;BMP280;6720;51.958;4.540;2023-06-22T12:22:36;101557.13;;;28.11
13304;BMP280;6720;51.958;4.540;2023-06-22T12:25:03;101545.88;;;28.17
13304;BMP280;6720;51.958;4.540;2023-06-22T12:27:29;101547.97;;;28.13
13304;BMP280;6720;51.958;4.540;2023-06-22T12:29:56;101546.38;;;28.00
13304;BMP280;6720;51.958;4.540;2023-06-22T12:32:21;101545.63;;;28.09
13304;BMP280;6720;51.958;4.540;2023-06-22T12:34:46;101532.66;;;28.03
13304;BMP280;6720;51.958;4.540;2023-06-22T12:37:12;101530.91;;;27.91
13304;BMP280;6720;51.958;4.540;2023-06-22T12:39:41;101542.09;;;28.19
13304;BMP280;6720;51.958;4.540;2023-06-22T12:42:07;101535.88;;;28.19
13304;BMP280;6720;51.958;4.540;2023-06-22T12:44:35;101536.31;;;27.91
13304;BMP280;6720;51.958;4.540;2023-06-22T12:47:01;101549.03;;;27.89
13304;BMP280;6720;51.958;4.540;2023-06-22T12:49:26;101537.31;;;28.12
13304;BMP280;6720;51.958;4.540;2023-06-22T12:51:52;101535.59;;;28.22
13304;BMP280;6720;51.958;4.540;2023-06-22T12:54:17;101539.28;;;28.21
13304;BMP280;6720;51.958;4.540;2023-06-22T12:56:43;101540.53;;;28.28
13304;BMP280;6720;51.958;4.540;2023-06-22T12:59:10;101540.69;;;27.92
13304;BMP280;6720;51.958;4.540;2023-06-22T13:01:35;101547.59;;;28.07
13304;BMP280;6720;51.958;4.540;2023-06-22T13:04:02;101537.69;;;28.07
13304;BMP280;6720;51.958;4.540;2023-06-22T13:06:28;101548.34;;;28.09
13304;BMP280;6720;51.958;4.540;2023-06-22T13:08:53;101542.47;;;28.04
13304;BMP280;6720;51.958;4.540;2023-06-22T13:11:19;101546.59;;;27.97
13304;BMP280;6720;51.958;4.540;2023-06-22T13:13:45;101540.16;;;27.75
13304;BMP280;6720;51.958;4.540;2023-06-22T13:16:11;101536.13;;;27.46
13304;BMP280;6720;51.958;4.540;2023-06-22T13:18:36;101537.56;;;27.28
13304;BMP280;6720;51.958;4.540;2023-06-22T13:21:03;101538.59;;;27.49
13304;BMP280;6720;51.958;4.540;2023-06-22T13:23:28;101531.97;;;27.42
13304;BMP280;6720;51.958;4.540;2023-06-22T13:25:54;101532.56;;;27.35
13304;BMP280;6720;51.958;4.540;2023-06-22T13:28:19;101536.13;;;27.46
13304;BMP280;6720;51.958;4.540;2023-06-22T13:30:46;101525.16;;;27.49
13304;BMP280;6720;51.958;4.540;2023-06-22T13:33:16;101535.19;;;27.47
13304;BMP280;6720;51.958;4.540;2023-06-22T13:35:41;101529.63;;;27.14
13304;BMP280;6720;51.958;4.540;2023-06-22T13:38:10;101530.22;;;27.30
13304;BMP280;6720;51.958;4.540;2023-06-22T13:40:36;101520.31;;;27.31
13304;BMP280;6720;51.958;4.540;2023-06-22T13:43:03;101514.78;;;27.21
13304;BMP280;6720;51.958;4.540;2023-06-22T13:45:28;101512.16;;;27.20
13304;BMP280;6720;51.958;4.540;2023-06-22T13:47:54;101516.06;;;27.16
13304;BMP280;6720;51.958;4.540;2023-06-22T13:50:19;101512.22;;;27.07
13304;BMP280;6720;51.958;4.540;2023-06-22T13:52:45;101510.13;;;27.00
13304;BMP280;6720;51.958;4.540;2023-06-22T13:55:10;101512.69;;;27.01
13304;BMP280;6720;51.958;4.540;2023-06-22T13:57:36;101513.16;;;26.95
13304;BMP280;6720;51.958;4.540;2023-06-22T14:00:03;101520.00;;;26.99
13304;BMP280;6720;51.958;4.540;2023-06-22T14:02:30;101522.41;;;26.91
13304;BMP280;6720;51.958;4.540;2023-06-22T14:04:56;101512.69;;;26.78
13304;BMP280;6720;51.958;4.540;2023-06-22T14:07:21;101512.31;;;26.82
13304;BMP280;6720;51.958;4.540;2023-06-22T14:09:47;101513.38;;;26.92
13304;BMP280;6720;51.958;4.540;2023-06-22T14:12:12;101507.59;;;26.86
13304;BMP280;6720;51.958;4.540;2023-06-22T14:14:38;101509.06;;;26.90
13304;BMP280;6720;51.958;4.540;2023-06-22T14:17:04;101506.84;;;26.84